<?xml version="1.0" encoding="UTF-8" standalone="no" ?>
<gpx xmlns="http://www.topografix.com/GPX/1/1" xmlns:xsi="http://www.w3.org/2001/XMLSchema-instance" xsi:schemaLocation="http://www.topografix.com/GPX/1/1 http://www.topografix.com/GPX/1/1/gpx.xsd" version="1.1" creator="VisuGPX - https://www.visugpx.com">
  <metadata>
    <name>CHEVROZ 11:12:38</name>
  </metadata>
  <trk>
    <name><![CDATA[CHEVROZ 11:12:38]]></name>
    <trkseg>
      <trkpt lat="47.3332" lon="5.99628">
        <ele>213.55</ele>
        <time>2018-01-14T07:57:12Z</time>
      </trkpt>
      <trkpt lat="47.3332" lon="5.99628">
        <ele>208.26</ele>
        <time>2018-01-14T07:57:19Z</time>
      </trkpt>
      <trkpt lat="47.3332" lon="5.99628">
        <ele>208.26</ele>
        <time>2018-01-14T07:57:20Z</time>
      </trkpt>
      <trkpt lat="47.3332" lon="5.99628">
        <ele>213.55</ele>
        <time>2018-01-14T07:57:21Z</time>
      </trkpt>
      <trkpt lat="47.3332" lon="5.99628">
        <ele>213.55</ele>
        <time>2018-01-14T07:57:22Z</time>
      </trkpt>
      <trkpt lat="47.3332" lon="5.99628">
        <ele>213.55</ele>
        <time>2018-01-14T07:57:39Z</time>
      </trkpt>
      <trkpt lat="47.3332" lon="5.99628">
        <ele>213.55</ele>
        <time>2018-01-14T07:57:57Z</time>
      </trkpt>
      <trkpt lat="47.33321" lon="5.99628">
        <ele>214.03</ele>
        <time>2018-01-14T07:58:21Z</time>
      </trkpt>
      <trkpt lat="47.33324" lon="5.99629">
        <ele>213.55</ele>
        <time>2018-01-14T07:58:35Z</time>
      </trkpt>
      <trkpt lat="47.3333" lon="5.99636">
        <ele>214.03</ele>
        <time>2018-01-14T07:58:41Z</time>
      </trkpt>
      <trkpt lat="47.3334" lon="5.99655">
        <ele>214.03</ele>
        <time>2018-01-14T07:58:56Z</time>
      </trkpt>
      <trkpt lat="47.33344" lon="5.99659">
        <ele>214.03</ele>
        <time>2018-01-14T07:59:12Z</time>
      </trkpt>
      <trkpt lat="47.33345" lon="5.9966">
        <ele>213.55</ele>
        <time>2018-01-14T07:59:27Z</time>
      </trkpt>
      <trkpt lat="47.33347" lon="5.99661">
        <ele>213.55</ele>
        <time>2018-01-14T07:59:29Z</time>
      </trkpt>
      <trkpt lat="47.33358" lon="5.99671">
        <ele>213.55</ele>
        <time>2018-01-14T07:59:46Z</time>
      </trkpt>
      <trkpt lat="47.33363" lon="5.99678">
        <ele>214.03</ele>
        <time>2018-01-14T07:59:54Z</time>
      </trkpt>
      <trkpt lat="47.33378" lon="5.99697">
        <ele>214.51</ele>
        <time>2018-01-14T08:00:11Z</time>
      </trkpt>
      <trkpt lat="47.33388" lon="5.9971">
        <ele>215.47</ele>
        <time>2018-01-14T08:00:28Z</time>
      </trkpt>
      <trkpt lat="47.33388" lon="5.99716">
        <ele>215.47</ele>
        <time>2018-01-14T08:00:32Z</time>
      </trkpt>
      <trkpt lat="47.33385" lon="5.99723">
        <ele>215.95</ele>
        <time>2018-01-14T08:00:46Z</time>
      </trkpt>
      <trkpt lat="47.3338" lon="5.99723">
        <ele>215.95</ele>
        <time>2018-01-14T08:01:12Z</time>
      </trkpt>
      <trkpt lat="47.3338" lon="5.99723">
        <ele>215.95</ele>
        <time>2018-01-14T08:01:38Z</time>
      </trkpt>
      <trkpt lat="47.33386" lon="5.99714">
        <ele>215.95</ele>
        <time>2018-01-14T08:02:01Z</time>
      </trkpt>
      <trkpt lat="47.33386" lon="5.99707">
        <ele>215.47</ele>
        <time>2018-01-14T08:02:26Z</time>
      </trkpt>
      <trkpt lat="47.33386" lon="5.99713">
        <ele>215.47</ele>
        <time>2018-01-14T08:02:49Z</time>
      </trkpt>
      <trkpt lat="47.33386" lon="5.99713">
        <ele>214.99</ele>
        <time>2018-01-14T08:03:15Z</time>
      </trkpt>
      <trkpt lat="47.33386" lon="5.99713">
        <ele>214.99</ele>
        <time>2018-01-14T08:03:18Z</time>
      </trkpt>
      <trkpt lat="47.33374" lon="5.99719">
        <ele>215.95</ele>
        <time>2018-01-14T08:03:44Z</time>
      </trkpt>
      <trkpt lat="47.33374" lon="5.99729">
        <ele>215.95</ele>
        <time>2018-01-14T08:04:07Z</time>
      </trkpt>
      <trkpt lat="47.33376" lon="5.99728">
        <ele>215.47</ele>
        <time>2018-01-14T08:04:12Z</time>
      </trkpt>
      <trkpt lat="47.33381" lon="5.99717">
        <ele>215.47</ele>
        <time>2018-01-14T08:04:36Z</time>
      </trkpt>
      <trkpt lat="47.33389" lon="5.99723">
        <ele>214.99</ele>
        <time>2018-01-14T08:05:00Z</time>
      </trkpt>
      <trkpt lat="47.3339" lon="5.9972">
        <ele>215.95</ele>
        <time>2018-01-14T08:05:12Z</time>
      </trkpt>
      <trkpt lat="47.3339" lon="5.99716">
        <ele>214.03</ele>
        <time>2018-01-14T08:05:35Z</time>
      </trkpt>
      <trkpt lat="47.33384" lon="5.99714">
        <ele>214.51</ele>
        <time>2018-01-14T08:05:57Z</time>
      </trkpt>
      <trkpt lat="47.33386" lon="5.99715">
        <ele>214.03</ele>
        <time>2018-01-14T08:06:08Z</time>
      </trkpt>
      <trkpt lat="47.33385" lon="5.99712">
        <ele>214.51</ele>
        <time>2018-01-14T08:06:34Z</time>
      </trkpt>
      <trkpt lat="47.33383" lon="5.99718">
        <ele>214.03</ele>
        <time>2018-01-14T08:06:57Z</time>
      </trkpt>
      <trkpt lat="47.33386" lon="5.9972">
        <ele>214.51</ele>
        <time>2018-01-14T08:07:00Z</time>
      </trkpt>
      <trkpt lat="47.33387" lon="5.99722">
        <ele>215.47</ele>
        <time>2018-01-14T08:07:05Z</time>
      </trkpt>
      <trkpt lat="47.33387" lon="5.99722">
        <ele>211.63</ele>
        <time>2018-01-14T08:07:13Z</time>
      </trkpt>
      <trkpt lat="47.33387" lon="5.99722">
        <ele>216.43</ele>
        <time>2018-01-14T08:07:15Z</time>
      </trkpt>
      <trkpt lat="47.33387" lon="5.99722">
        <ele>214.99</ele>
        <time>2018-01-14T08:07:32Z</time>
      </trkpt>
      <trkpt lat="47.33391" lon="5.99729">
        <ele>214.51</ele>
        <time>2018-01-14T08:07:50Z</time>
      </trkpt>
      <trkpt lat="47.33391" lon="5.99735">
        <ele>214.51</ele>
        <time>2018-01-14T08:07:54Z</time>
      </trkpt>
      <trkpt lat="47.33389" lon="5.99753">
        <ele>214.03</ele>
        <time>2018-01-14T08:08:02Z</time>
      </trkpt>
      <trkpt lat="47.33382" lon="5.99775">
        <ele>214.51</ele>
        <time>2018-01-14T08:08:16Z</time>
      </trkpt>
      <trkpt lat="47.33379" lon="5.99782">
        <ele>214.51</ele>
        <time>2018-01-14T08:08:29Z</time>
      </trkpt>
      <trkpt lat="47.33378" lon="5.99788">
        <ele>214.51</ele>
        <time>2018-01-14T08:08:32Z</time>
      </trkpt>
      <trkpt lat="47.33374" lon="5.998">
        <ele>214.99</ele>
        <time>2018-01-14T08:08:40Z</time>
      </trkpt>
      <trkpt lat="47.33373" lon="5.99802">
        <ele>214.99</ele>
        <time>2018-01-14T08:08:42Z</time>
      </trkpt>
      <trkpt lat="47.33355" lon="5.99811">
        <ele>215.47</ele>
        <time>2018-01-14T08:08:57Z</time>
      </trkpt>
      <trkpt lat="47.33333" lon="5.99809">
        <ele>216.43</ele>
        <time>2018-01-14T08:09:13Z</time>
      </trkpt>
      <trkpt lat="47.33315" lon="5.998">
        <ele>216.91</ele>
        <time>2018-01-14T08:09:28Z</time>
      </trkpt>
      <trkpt lat="47.33312" lon="5.99799">
        <ele>217.4</ele>
        <time>2018-01-14T08:09:41Z</time>
      </trkpt>
      <trkpt lat="47.333" lon="5.99795">
        <ele>216.91</ele>
        <time>2018-01-14T08:09:59Z</time>
      </trkpt>
      <trkpt lat="47.33279" lon="5.99788">
        <ele>216.91</ele>
        <time>2018-01-14T08:10:13Z</time>
      </trkpt>
      <trkpt lat="47.33257" lon="5.99788">
        <ele>217.4</ele>
        <time>2018-01-14T08:10:29Z</time>
      </trkpt>
      <trkpt lat="47.33233" lon="5.99793">
        <ele>216.91</ele>
        <time>2018-01-14T08:10:45Z</time>
      </trkpt>
      <trkpt lat="47.33212" lon="5.99801">
        <ele>216.91</ele>
        <time>2018-01-14T08:11:01Z</time>
      </trkpt>
      <trkpt lat="47.33192" lon="5.99806">
        <ele>216.43</ele>
        <time>2018-01-14T08:11:16Z</time>
      </trkpt>
      <trkpt lat="47.33171" lon="5.9981">
        <ele>216.91</ele>
        <time>2018-01-14T08:11:31Z</time>
      </trkpt>
      <trkpt lat="47.33148" lon="5.99815">
        <ele>216.43</ele>
        <time>2018-01-14T08:11:47Z</time>
      </trkpt>
      <trkpt lat="47.33127" lon="5.99819">
        <ele>216.91</ele>
        <time>2018-01-14T08:12:02Z</time>
      </trkpt>
      <trkpt lat="47.33114" lon="5.99822">
        <ele>216.43</ele>
        <time>2018-01-14T08:12:12Z</time>
      </trkpt>
      <trkpt lat="47.33096" lon="5.99825">
        <ele>216.91</ele>
        <time>2018-01-14T08:12:26Z</time>
      </trkpt>
      <trkpt lat="47.33075" lon="5.9983">
        <ele>216.91</ele>
        <time>2018-01-14T08:12:41Z</time>
      </trkpt>
      <trkpt lat="47.3305" lon="5.99833">
        <ele>216.91</ele>
        <time>2018-01-14T08:12:57Z</time>
      </trkpt>
      <trkpt lat="47.33028" lon="5.99835">
        <ele>217.4</ele>
        <time>2018-01-14T08:13:13Z</time>
      </trkpt>
      <trkpt lat="47.33006" lon="5.99841">
        <ele>218.36</ele>
        <time>2018-01-14T08:13:29Z</time>
      </trkpt>
      <trkpt lat="47.32982" lon="5.99846">
        <ele>219.32</ele>
        <time>2018-01-14T08:13:46Z</time>
      </trkpt>
      <trkpt lat="47.32969" lon="5.99849">
        <ele>219.8</ele>
        <time>2018-01-14T08:13:57Z</time>
      </trkpt>
      <trkpt lat="47.32964" lon="5.99846">
        <ele>219.8</ele>
        <time>2018-01-14T08:14:01Z</time>
      </trkpt>
      <trkpt lat="47.32952" lon="5.99834">
        <ele>219.8</ele>
        <time>2018-01-14T08:14:14Z</time>
      </trkpt>
      <trkpt lat="47.32949" lon="5.9983">
        <ele>219.32</ele>
        <time>2018-01-14T08:14:17Z</time>
      </trkpt>
      <trkpt lat="47.32936" lon="5.99817">
        <ele>219.32</ele>
        <time>2018-01-14T08:14:30Z</time>
      </trkpt>
      <trkpt lat="47.32921" lon="5.99799">
        <ele>218.84</ele>
        <time>2018-01-14T08:14:45Z</time>
      </trkpt>
      <trkpt lat="47.32912" lon="5.99774">
        <ele>217.4</ele>
        <time>2018-01-14T08:14:59Z</time>
      </trkpt>
      <trkpt lat="47.32912" lon="5.99772">
        <ele>217.4</ele>
        <time>2018-01-14T08:15:00Z</time>
      </trkpt>
      <trkpt lat="47.32912" lon="5.99741">
        <ele>216.43</ele>
        <time>2018-01-14T08:15:17Z</time>
      </trkpt>
      <trkpt lat="47.32911" lon="5.99735">
        <ele>216.43</ele>
        <time>2018-01-14T08:15:33Z</time>
      </trkpt>
      <trkpt lat="47.3291" lon="5.99731">
        <ele>215.95</ele>
        <time>2018-01-14T08:15:52Z</time>
      </trkpt>
      <trkpt lat="47.32906" lon="5.99728">
        <ele>215.95</ele>
        <time>2018-01-14T08:16:13Z</time>
      </trkpt>
      <trkpt lat="47.32888" lon="5.99711">
        <ele>215.95</ele>
        <time>2018-01-14T08:16:29Z</time>
      </trkpt>
      <trkpt lat="47.32871" lon="5.99703">
        <ele>214.99</ele>
        <time>2018-01-14T08:16:43Z</time>
      </trkpt>
      <trkpt lat="47.32863" lon="5.99706">
        <ele>214.99</ele>
        <time>2018-01-14T08:16:49Z</time>
      </trkpt>
      <trkpt lat="47.32838" lon="5.99707">
        <ele>215.95</ele>
        <time>2018-01-14T08:17:06Z</time>
      </trkpt>
      <trkpt lat="47.32821" lon="5.9969">
        <ele>216.91</ele>
        <time>2018-01-14T08:17:21Z</time>
      </trkpt>
      <trkpt lat="47.32807" lon="5.99676">
        <ele>217.88</ele>
        <time>2018-01-14T08:17:33Z</time>
      </trkpt>
      <trkpt lat="47.3279" lon="5.99657">
        <ele>219.32</ele>
        <time>2018-01-14T08:17:48Z</time>
      </trkpt>
      <trkpt lat="47.32774" lon="5.99639">
        <ele>220.76</ele>
        <time>2018-01-14T08:18:03Z</time>
      </trkpt>
      <trkpt lat="47.32759" lon="5.99625">
        <ele>221.72</ele>
        <time>2018-01-14T08:18:16Z</time>
      </trkpt>
      <trkpt lat="47.32741" lon="5.99603">
        <ele>223.64</ele>
        <time>2018-01-14T08:18:34Z</time>
      </trkpt>
      <trkpt lat="47.32726" lon="5.99584">
        <ele>225.57</ele>
        <time>2018-01-14T08:18:50Z</time>
      </trkpt>
      <trkpt lat="47.3271" lon="5.99565">
        <ele>226.53</ele>
        <time>2018-01-14T08:19:05Z</time>
      </trkpt>
      <trkpt lat="47.327" lon="5.99551">
        <ele>227.01</ele>
        <time>2018-01-14T08:19:18Z</time>
      </trkpt>
      <trkpt lat="47.32697" lon="5.99549">
        <ele>227.49</ele>
        <time>2018-01-14T08:19:21Z</time>
      </trkpt>
      <trkpt lat="47.32695" lon="5.99546">
        <ele>227.01</ele>
        <time>2018-01-14T08:19:24Z</time>
      </trkpt>
      <trkpt lat="47.3268" lon="5.99529">
        <ele>227.97</ele>
        <time>2018-01-14T08:19:39Z</time>
      </trkpt>
      <trkpt lat="47.32666" lon="5.9951">
        <ele>228.45</ele>
        <time>2018-01-14T08:19:53Z</time>
      </trkpt>
      <trkpt lat="47.32652" lon="5.99491">
        <ele>227.97</ele>
        <time>2018-01-14T08:20:07Z</time>
      </trkpt>
      <trkpt lat="47.32634" lon="5.99471">
        <ele>227.97</ele>
        <time>2018-01-14T08:20:21Z</time>
      </trkpt>
      <trkpt lat="47.3262" lon="5.99454">
        <ele>226.53</ele>
        <time>2018-01-14T08:20:35Z</time>
      </trkpt>
      <trkpt lat="47.326" lon="5.99433">
        <ele>225.09</ele>
        <time>2018-01-14T08:20:51Z</time>
      </trkpt>
      <trkpt lat="47.32598" lon="5.99431">
        <ele>224.61</ele>
        <time>2018-01-14T08:20:53Z</time>
      </trkpt>
      <trkpt lat="47.32592" lon="5.99424">
        <ele>224.61</ele>
        <time>2018-01-14T08:20:58Z</time>
      </trkpt>
      <trkpt lat="47.32572" lon="5.99403">
        <ele>223.16</ele>
        <time>2018-01-14T08:21:14Z</time>
      </trkpt>
      <trkpt lat="47.32556" lon="5.99386">
        <ele>222.68</ele>
        <time>2018-01-14T08:21:28Z</time>
      </trkpt>
      <trkpt lat="47.32538" lon="5.99367">
        <ele>222.2</ele>
        <time>2018-01-14T08:21:43Z</time>
      </trkpt>
      <trkpt lat="47.32519" lon="5.99348">
        <ele>221.72</ele>
        <time>2018-01-14T08:21:59Z</time>
      </trkpt>
      <trkpt lat="47.32497" lon="5.99326">
        <ele>220.76</ele>
        <time>2018-01-14T08:22:16Z</time>
      </trkpt>
      <trkpt lat="47.32483" lon="5.99306">
        <ele>219.8</ele>
        <time>2018-01-14T08:22:31Z</time>
      </trkpt>
      <trkpt lat="47.32466" lon="5.99278">
        <ele>218.36</ele>
        <time>2018-01-14T08:22:47Z</time>
      </trkpt>
      <trkpt lat="47.32455" lon="5.99254">
        <ele>216.43</ele>
        <time>2018-01-14T08:23:02Z</time>
      </trkpt>
      <trkpt lat="47.3244" lon="5.99229">
        <ele>216.43</ele>
        <time>2018-01-14T08:23:17Z</time>
      </trkpt>
      <trkpt lat="47.32423" lon="5.99204">
        <ele>216.43</ele>
        <time>2018-01-14T08:23:33Z</time>
      </trkpt>
      <trkpt lat="47.32407" lon="5.99179">
        <ele>215.95</ele>
        <time>2018-01-14T08:23:49Z</time>
      </trkpt>
      <trkpt lat="47.324" lon="5.99162">
        <ele>216.91</ele>
        <time>2018-01-14T08:23:59Z</time>
      </trkpt>
      <trkpt lat="47.32406" lon="5.99127">
        <ele>217.88</ele>
        <time>2018-01-14T08:24:16Z</time>
      </trkpt>
      <trkpt lat="47.32401" lon="5.99113">
        <ele>218.36</ele>
        <time>2018-01-14T08:24:25Z</time>
      </trkpt>
      <trkpt lat="47.32386" lon="5.99097">
        <ele>219.8</ele>
        <time>2018-01-14T08:24:40Z</time>
      </trkpt>
      <trkpt lat="47.32372" lon="5.99082">
        <ele>220.76</ele>
        <time>2018-01-14T08:24:54Z</time>
      </trkpt>
      <trkpt lat="47.32356" lon="5.9908">
        <ele>221.24</ele>
        <time>2018-01-14T08:25:08Z</time>
      </trkpt>
      <trkpt lat="47.32338" lon="5.99069">
        <ele>222.2</ele>
        <time>2018-01-14T08:25:23Z</time>
      </trkpt>
      <trkpt lat="47.32324" lon="5.99043">
        <ele>224.12</ele>
        <time>2018-01-14T08:25:40Z</time>
      </trkpt>
      <trkpt lat="47.32313" lon="5.99026">
        <ele>225.09</ele>
        <time>2018-01-14T08:25:54Z</time>
      </trkpt>
      <trkpt lat="47.32307" lon="5.99017">
        <ele>225.57</ele>
        <time>2018-01-14T08:26:01Z</time>
      </trkpt>
      <trkpt lat="47.32305" lon="5.99013">
        <ele>225.57</ele>
        <time>2018-01-14T08:26:04Z</time>
      </trkpt>
      <trkpt lat="47.32293" lon="5.98991">
        <ele>226.53</ele>
        <time>2018-01-14T08:26:19Z</time>
      </trkpt>
      <trkpt lat="47.32283" lon="5.98967">
        <ele>227.49</ele>
        <time>2018-01-14T08:26:34Z</time>
      </trkpt>
      <trkpt lat="47.32274" lon="5.98961">
        <ele>227.49</ele>
        <time>2018-01-14T08:26:44Z</time>
      </trkpt>
      <trkpt lat="47.32258" lon="5.98952">
        <ele>228.93</ele>
        <time>2018-01-14T08:26:59Z</time>
      </trkpt>
      <trkpt lat="47.32256" lon="5.98952">
        <ele>229.41</ele>
        <time>2018-01-14T08:27:13Z</time>
      </trkpt>
      <trkpt lat="47.32256" lon="5.98952">
        <ele>229.41</ele>
        <time>2018-01-14T08:27:37Z</time>
      </trkpt>
      <trkpt lat="47.32257" lon="5.98951">
        <ele>228.93</ele>
        <time>2018-01-14T08:27:52Z</time>
      </trkpt>
      <trkpt lat="47.32254" lon="5.9895">
        <ele>228.93</ele>
        <time>2018-01-14T08:28:07Z</time>
      </trkpt>
      <trkpt lat="47.32254" lon="5.98949">
        <ele>228.93</ele>
        <time>2018-01-14T08:28:39Z</time>
      </trkpt>
      <trkpt lat="47.32253" lon="5.98945">
        <ele>229.41</ele>
        <time>2018-01-14T08:28:50Z</time>
      </trkpt>
      <trkpt lat="47.32239" lon="5.98925">
        <ele>229.89</ele>
        <time>2018-01-14T08:29:05Z</time>
      </trkpt>
      <trkpt lat="47.32228" lon="5.98906">
        <ele>230.85</ele>
        <time>2018-01-14T08:29:19Z</time>
      </trkpt>
      <trkpt lat="47.32216" lon="5.98885">
        <ele>231.33</ele>
        <time>2018-01-14T08:29:33Z</time>
      </trkpt>
      <trkpt lat="47.322" lon="5.98859">
        <ele>230.85</ele>
        <time>2018-01-14T08:29:51Z</time>
      </trkpt>
      <trkpt lat="47.32185" lon="5.9884">
        <ele>230.37</ele>
        <time>2018-01-14T08:30:05Z</time>
      </trkpt>
      <trkpt lat="47.32172" lon="5.98822">
        <ele>229.89</ele>
        <time>2018-01-14T08:30:18Z</time>
      </trkpt>
      <trkpt lat="47.32159" lon="5.988">
        <ele>229.41</ele>
        <time>2018-01-14T08:30:34Z</time>
      </trkpt>
      <trkpt lat="47.32144" lon="5.98778">
        <ele>229.89</ele>
        <time>2018-01-14T08:30:50Z</time>
      </trkpt>
      <trkpt lat="47.32136" lon="5.98767">
        <ele>229.89</ele>
        <time>2018-01-14T08:30:58Z</time>
      </trkpt>
      <trkpt lat="47.32122" lon="5.98748">
        <ele>228.93</ele>
        <time>2018-01-14T08:31:14Z</time>
      </trkpt>
      <trkpt lat="47.32114" lon="5.98738">
        <ele>228.93</ele>
        <time>2018-01-14T08:31:21Z</time>
      </trkpt>
      <trkpt lat="47.321" lon="5.98716">
        <ele>228.45</ele>
        <time>2018-01-14T08:31:37Z</time>
      </trkpt>
      <trkpt lat="47.32086" lon="5.98695">
        <ele>227.49</ele>
        <time>2018-01-14T08:31:52Z</time>
      </trkpt>
      <trkpt lat="47.32073" lon="5.98675">
        <ele>227.49</ele>
        <time>2018-01-14T08:32:07Z</time>
      </trkpt>
      <trkpt lat="47.32067" lon="5.98666">
        <ele>227.01</ele>
        <time>2018-01-14T08:32:13Z</time>
      </trkpt>
      <trkpt lat="47.32064" lon="5.98661">
        <ele>227.01</ele>
        <time>2018-01-14T08:32:17Z</time>
      </trkpt>
      <trkpt lat="47.32052" lon="5.98638">
        <ele>227.01</ele>
        <time>2018-01-14T08:32:33Z</time>
      </trkpt>
      <trkpt lat="47.32039" lon="5.98618">
        <ele>227.01</ele>
        <time>2018-01-14T08:32:47Z</time>
      </trkpt>
      <trkpt lat="47.32038" lon="5.98615">
        <ele>227.01</ele>
        <time>2018-01-14T08:32:49Z</time>
      </trkpt>
      <trkpt lat="47.32031" lon="5.98603">
        <ele>227.49</ele>
        <time>2018-01-14T08:32:57Z</time>
      </trkpt>
      <trkpt lat="47.32015" lon="5.98579">
        <ele>226.53</ele>
        <time>2018-01-14T08:33:13Z</time>
      </trkpt>
      <trkpt lat="47.32002" lon="5.98558">
        <ele>226.05</ele>
        <time>2018-01-14T08:33:28Z</time>
      </trkpt>
      <trkpt lat="47.31998" lon="5.98551">
        <ele>225.57</ele>
        <time>2018-01-14T08:33:33Z</time>
      </trkpt>
      <trkpt lat="47.31984" lon="5.98529">
        <ele>226.05</ele>
        <time>2018-01-14T08:33:48Z</time>
      </trkpt>
      <trkpt lat="47.3197" lon="5.98505">
        <ele>225.09</ele>
        <time>2018-01-14T08:34:04Z</time>
      </trkpt>
      <trkpt lat="47.31963" lon="5.98496">
        <ele>225.09</ele>
        <time>2018-01-14T08:34:11Z</time>
      </trkpt>
      <trkpt lat="47.31949" lon="5.98472">
        <ele>224.61</ele>
        <time>2018-01-14T08:34:28Z</time>
      </trkpt>
      <trkpt lat="47.31936" lon="5.9845">
        <ele>223.64</ele>
        <time>2018-01-14T08:34:43Z</time>
      </trkpt>
      <trkpt lat="47.31929" lon="5.98437">
        <ele>222.68</ele>
        <time>2018-01-14T08:34:52Z</time>
      </trkpt>
      <trkpt lat="47.31928" lon="5.98434">
        <ele>223.16</ele>
        <time>2018-01-14T08:34:54Z</time>
      </trkpt>
      <trkpt lat="47.31913" lon="5.98411">
        <ele>222.2</ele>
        <time>2018-01-14T08:35:10Z</time>
      </trkpt>
      <trkpt lat="47.31901" lon="5.98394">
        <ele>221.72</ele>
        <time>2018-01-14T08:35:23Z</time>
      </trkpt>
      <trkpt lat="47.31887" lon="5.98372">
        <ele>220.76</ele>
        <time>2018-01-14T08:35:38Z</time>
      </trkpt>
      <trkpt lat="47.31877" lon="5.98348">
        <ele>219.32</ele>
        <time>2018-01-14T08:35:53Z</time>
      </trkpt>
      <trkpt lat="47.31869" lon="5.98329">
        <ele>219.8</ele>
        <time>2018-01-14T08:36:05Z</time>
      </trkpt>
      <trkpt lat="47.31857" lon="5.98299">
        <ele>217.88</ele>
        <time>2018-01-14T08:36:22Z</time>
      </trkpt>
      <trkpt lat="47.31847" lon="5.98275">
        <ele>216.91</ele>
        <time>2018-01-14T08:36:36Z</time>
      </trkpt>
      <trkpt lat="47.31837" lon="5.98251">
        <ele>215.47</ele>
        <time>2018-01-14T08:36:51Z</time>
      </trkpt>
      <trkpt lat="47.31826" lon="5.98227">
        <ele>215.95</ele>
        <time>2018-01-14T08:37:05Z</time>
      </trkpt>
      <trkpt lat="47.31826" lon="5.98226">
        <ele>215.95</ele>
        <time>2018-01-14T08:37:06Z</time>
      </trkpt>
      <trkpt lat="47.3182" lon="5.98214">
        <ele>215.47</ele>
        <time>2018-01-14T08:37:14Z</time>
      </trkpt>
      <trkpt lat="47.31814" lon="5.98201">
        <ele>215.95</ele>
        <time>2018-01-14T08:37:23Z</time>
      </trkpt>
      <trkpt lat="47.31817" lon="5.9818">
        <ele>214.51</ele>
        <time>2018-01-14T08:37:35Z</time>
      </trkpt>
      <trkpt lat="47.31827" lon="5.98161">
        <ele>213.55</ele>
        <time>2018-01-14T08:37:50Z</time>
      </trkpt>
      <trkpt lat="47.31826" lon="5.9816">
        <ele>213.55</ele>
        <time>2018-01-14T08:37:51Z</time>
      </trkpt>
      <trkpt lat="47.31818" lon="5.98129">
        <ele>212.59</ele>
        <time>2018-01-14T08:38:06Z</time>
      </trkpt>
      <trkpt lat="47.31815" lon="5.98122">
        <ele>213.07</ele>
        <time>2018-01-14T08:38:10Z</time>
      </trkpt>
      <trkpt lat="47.31817" lon="5.98098">
        <ele>212.59</ele>
        <time>2018-01-14T08:38:24Z</time>
      </trkpt>
      <trkpt lat="47.3182" lon="5.98084">
        <ele>212.59</ele>
        <time>2018-01-14T08:38:31Z</time>
      </trkpt>
      <trkpt lat="47.3182" lon="5.98066">
        <ele>212.11</ele>
        <time>2018-01-14T08:38:39Z</time>
      </trkpt>
      <trkpt lat="47.31817" lon="5.98061">
        <ele>212.59</ele>
        <time>2018-01-14T08:38:42Z</time>
      </trkpt>
      <trkpt lat="47.31819" lon="5.98049">
        <ele>213.07</ele>
        <time>2018-01-14T08:38:50Z</time>
      </trkpt>
      <trkpt lat="47.31824" lon="5.98043">
        <ele>213.07</ele>
        <time>2018-01-14T08:38:57Z</time>
      </trkpt>
      <trkpt lat="47.31844" lon="5.98034">
        <ele>212.59</ele>
        <time>2018-01-14T08:39:15Z</time>
      </trkpt>
      <trkpt lat="47.31846" lon="5.98035">
        <ele>212.59</ele>
        <time>2018-01-14T08:39:17Z</time>
      </trkpt>
      <trkpt lat="47.31864" lon="5.98022">
        <ele>212.11</ele>
        <time>2018-01-14T08:39:33Z</time>
      </trkpt>
      <trkpt lat="47.31891" lon="5.98008">
        <ele>211.63</ele>
        <time>2018-01-14T08:39:50Z</time>
      </trkpt>
      <trkpt lat="47.31916" lon="5.97994">
        <ele>212.11</ele>
        <time>2018-01-14T08:40:11Z</time>
      </trkpt>
      <trkpt lat="47.31941" lon="5.97983">
        <ele>212.11</ele>
        <time>2018-01-14T08:40:30Z</time>
      </trkpt>
      <trkpt lat="47.31963" lon="5.97973">
        <ele>212.11</ele>
        <time>2018-01-14T08:40:47Z</time>
      </trkpt>
      <trkpt lat="47.31987" lon="5.97963">
        <ele>212.11</ele>
        <time>2018-01-14T08:41:06Z</time>
      </trkpt>
      <trkpt lat="47.32007" lon="5.97953">
        <ele>211.15</ele>
        <time>2018-01-14T08:41:22Z</time>
      </trkpt>
      <trkpt lat="47.32028" lon="5.97943">
        <ele>211.15</ele>
        <time>2018-01-14T08:41:39Z</time>
      </trkpt>
      <trkpt lat="47.3205" lon="5.97932">
        <ele>211.15</ele>
        <time>2018-01-14T08:41:55Z</time>
      </trkpt>
      <trkpt lat="47.32066" lon="5.97926">
        <ele>210.67</ele>
        <time>2018-01-14T08:42:08Z</time>
      </trkpt>
      <trkpt lat="47.32089" lon="5.97918">
        <ele>210.67</ele>
        <time>2018-01-14T08:42:26Z</time>
      </trkpt>
      <trkpt lat="47.32098" lon="5.97914">
        <ele>210.19</ele>
        <time>2018-01-14T08:42:33Z</time>
      </trkpt>
      <trkpt lat="47.32105" lon="5.97918">
        <ele>210.67</ele>
        <time>2018-01-14T08:42:39Z</time>
      </trkpt>
      <trkpt lat="47.32119" lon="5.97926">
        <ele>210.67</ele>
        <time>2018-01-14T08:42:52Z</time>
      </trkpt>
      <trkpt lat="47.32121" lon="5.97942">
        <ele>211.15</ele>
        <time>2018-01-14T08:42:59Z</time>
      </trkpt>
      <trkpt lat="47.32134" lon="5.97965">
        <ele>211.63</ele>
        <time>2018-01-14T08:43:15Z</time>
      </trkpt>
      <trkpt lat="47.32135" lon="5.97966">
        <ele>211.63</ele>
        <time>2018-01-14T08:43:16Z</time>
      </trkpt>
      <trkpt lat="47.3215" lon="5.97972">
        <ele>212.11</ele>
        <time>2018-01-14T08:43:29Z</time>
      </trkpt>
      <trkpt lat="47.32172" lon="5.97972">
        <ele>212.11</ele>
        <time>2018-01-14T08:43:45Z</time>
      </trkpt>
      <trkpt lat="47.32192" lon="5.97965">
        <ele>212.59</ele>
        <time>2018-01-14T08:44:01Z</time>
      </trkpt>
      <trkpt lat="47.32214" lon="5.97955">
        <ele>212.59</ele>
        <time>2018-01-14T08:44:18Z</time>
      </trkpt>
      <trkpt lat="47.32236" lon="5.97941">
        <ele>212.11</ele>
        <time>2018-01-14T08:44:36Z</time>
      </trkpt>
      <trkpt lat="47.32257" lon="5.97931">
        <ele>212.11</ele>
        <time>2018-01-14T08:44:51Z</time>
      </trkpt>
      <trkpt lat="47.32274" lon="5.97924">
        <ele>211.63</ele>
        <time>2018-01-14T08:45:06Z</time>
      </trkpt>
      <trkpt lat="47.3229" lon="5.97914">
        <ele>211.63</ele>
        <time>2018-01-14T08:45:21Z</time>
      </trkpt>
      <trkpt lat="47.32311" lon="5.97904">
        <ele>210.19</ele>
        <time>2018-01-14T08:45:37Z</time>
      </trkpt>
      <trkpt lat="47.32325" lon="5.97897">
        <ele>209.7</ele>
        <time>2018-01-14T08:45:50Z</time>
      </trkpt>
      <trkpt lat="47.32335" lon="5.97897">
        <ele>210.19</ele>
        <time>2018-01-14T08:45:58Z</time>
      </trkpt>
      <trkpt lat="47.32356" lon="5.9789">
        <ele>210.67</ele>
        <time>2018-01-14T08:46:13Z</time>
      </trkpt>
      <trkpt lat="47.32367" lon="5.97884">
        <ele>210.67</ele>
        <time>2018-01-14T08:46:25Z</time>
      </trkpt>
      <trkpt lat="47.32383" lon="5.97873">
        <ele>209.7</ele>
        <time>2018-01-14T08:46:39Z</time>
      </trkpt>
      <trkpt lat="47.32398" lon="5.9787">
        <ele>209.7</ele>
        <time>2018-01-14T08:46:51Z</time>
      </trkpt>
      <trkpt lat="47.32414" lon="5.97864">
        <ele>209.22</ele>
        <time>2018-01-14T08:47:05Z</time>
      </trkpt>
      <trkpt lat="47.32418" lon="5.97863">
        <ele>209.7</ele>
        <time>2018-01-14T08:47:08Z</time>
      </trkpt>
      <trkpt lat="47.32432" lon="5.97855">
        <ele>208.74</ele>
        <time>2018-01-14T08:47:23Z</time>
      </trkpt>
      <trkpt lat="47.32446" lon="5.97836">
        <ele>208.74</ele>
        <time>2018-01-14T08:47:38Z</time>
      </trkpt>
      <trkpt lat="47.32458" lon="5.97831">
        <ele>209.22</ele>
        <time>2018-01-14T08:47:50Z</time>
      </trkpt>
      <trkpt lat="47.3246" lon="5.97829">
        <ele>209.22</ele>
        <time>2018-01-14T08:47:52Z</time>
      </trkpt>
      <trkpt lat="47.32464" lon="5.97823">
        <ele>208.74</ele>
        <time>2018-01-14T08:47:56Z</time>
      </trkpt>
      <trkpt lat="47.32463" lon="5.97794">
        <ele>208.74</ele>
        <time>2018-01-14T08:48:13Z</time>
      </trkpt>
      <trkpt lat="47.3246" lon="5.97761">
        <ele>208.74</ele>
        <time>2018-01-14T08:48:31Z</time>
      </trkpt>
      <trkpt lat="47.32458" lon="5.97728">
        <ele>208.74</ele>
        <time>2018-01-14T08:48:48Z</time>
      </trkpt>
      <trkpt lat="47.32455" lon="5.97694">
        <ele>208.74</ele>
        <time>2018-01-14T08:49:05Z</time>
      </trkpt>
      <trkpt lat="47.32452" lon="5.97663">
        <ele>208.74</ele>
        <time>2018-01-14T08:49:21Z</time>
      </trkpt>
      <trkpt lat="47.32452" lon="5.97644">
        <ele>209.22</ele>
        <time>2018-01-14T08:49:35Z</time>
      </trkpt>
      <trkpt lat="47.32452" lon="5.97643">
        <ele>208.74</ele>
        <time>2018-01-14T08:49:36Z</time>
      </trkpt>
      <trkpt lat="47.32449" lon="5.97627">
        <ele>210.67</ele>
        <time>2018-01-14T08:49:52Z</time>
      </trkpt>
      <trkpt lat="47.32449" lon="5.97626">
        <ele>209.22</ele>
        <time>2018-01-14T08:49:53Z</time>
      </trkpt>
      <trkpt lat="47.32448" lon="5.9762">
        <ele>208.74</ele>
        <time>2018-01-14T08:50:06Z</time>
      </trkpt>
      <trkpt lat="47.32448" lon="5.9762">
        <ele>208.74</ele>
        <time>2018-01-14T08:50:41Z</time>
      </trkpt>
      <trkpt lat="47.32448" lon="5.9762">
        <ele>209.22</ele>
        <time>2018-01-14T08:50:56Z</time>
      </trkpt>
      <trkpt lat="47.32448" lon="5.9762">
        <ele>205.86</ele>
        <time>2018-01-14T08:51:09Z</time>
      </trkpt>
      <trkpt lat="47.32448" lon="5.97621">
        <ele>213.07</ele>
        <time>2018-01-14T08:51:10Z</time>
      </trkpt>
      <trkpt lat="47.32449" lon="5.9762">
        <ele>209.7</ele>
        <time>2018-01-14T08:51:11Z</time>
      </trkpt>
      <trkpt lat="47.32449" lon="5.97619">
        <ele>209.7</ele>
        <time>2018-01-14T08:51:12Z</time>
      </trkpt>
      <trkpt lat="47.32447" lon="5.97584">
        <ele>210.19</ele>
        <time>2018-01-14T08:51:29Z</time>
      </trkpt>
      <trkpt lat="47.32443" lon="5.97542">
        <ele>209.7</ele>
        <time>2018-01-14T08:51:47Z</time>
      </trkpt>
      <trkpt lat="47.32443" lon="5.97537">
        <ele>210.19</ele>
        <time>2018-01-14T08:51:49Z</time>
      </trkpt>
      <trkpt lat="47.32442" lon="5.97527">
        <ele>209.7</ele>
        <time>2018-01-14T08:51:54Z</time>
      </trkpt>
      <trkpt lat="47.32436" lon="5.97496">
        <ele>210.19</ele>
        <time>2018-01-14T08:52:10Z</time>
      </trkpt>
      <trkpt lat="47.32431" lon="5.97458">
        <ele>210.19</ele>
        <time>2018-01-14T08:52:27Z</time>
      </trkpt>
      <trkpt lat="47.32431" lon="5.97455">
        <ele>210.67</ele>
        <time>2018-01-14T08:52:29Z</time>
      </trkpt>
      <trkpt lat="47.3243" lon="5.97451">
        <ele>211.15</ele>
        <time>2018-01-14T08:52:31Z</time>
      </trkpt>
      <trkpt lat="47.32422" lon="5.97407">
        <ele>212.11</ele>
        <time>2018-01-14T08:52:50Z</time>
      </trkpt>
      <trkpt lat="47.32407" lon="5.97373">
        <ele>212.11</ele>
        <time>2018-01-14T08:53:07Z</time>
      </trkpt>
      <trkpt lat="47.32399" lon="5.97352">
        <ele>212.59</ele>
        <time>2018-01-14T08:53:22Z</time>
      </trkpt>
      <trkpt lat="47.32391" lon="5.97321">
        <ele>212.59</ele>
        <time>2018-01-14T08:53:35Z</time>
      </trkpt>
      <trkpt lat="47.32396" lon="5.97291">
        <ele>213.55</ele>
        <time>2018-01-14T08:53:51Z</time>
      </trkpt>
      <trkpt lat="47.32399" lon="5.97266">
        <ele>215.47</ele>
        <time>2018-01-14T08:54:04Z</time>
      </trkpt>
      <trkpt lat="47.32399" lon="5.97248">
        <ele>216.91</ele>
        <time>2018-01-14T08:54:14Z</time>
      </trkpt>
      <trkpt lat="47.32415" lon="5.9723">
        <ele>216.91</ele>
        <time>2018-01-14T08:54:29Z</time>
      </trkpt>
      <trkpt lat="47.32415" lon="5.97228">
        <ele>216.91</ele>
        <time>2018-01-14T08:54:30Z</time>
      </trkpt>
      <trkpt lat="47.32412" lon="5.97201">
        <ele>218.84</ele>
        <time>2018-01-14T08:54:44Z</time>
      </trkpt>
      <trkpt lat="47.32413" lon="5.97193">
        <ele>218.36</ele>
        <time>2018-01-14T08:55:00Z</time>
      </trkpt>
      <trkpt lat="47.32412" lon="5.97193">
        <ele>218.36</ele>
        <time>2018-01-14T08:55:18Z</time>
      </trkpt>
      <trkpt lat="47.32413" lon="5.97183">
        <ele>218.84</ele>
        <time>2018-01-14T08:55:34Z</time>
      </trkpt>
      <trkpt lat="47.32413" lon="5.97179">
        <ele>218.36</ele>
        <time>2018-01-14T08:55:48Z</time>
      </trkpt>
      <trkpt lat="47.32411" lon="5.97171">
        <ele>217.88</ele>
        <time>2018-01-14T08:55:52Z</time>
      </trkpt>
      <trkpt lat="47.32409" lon="5.97157">
        <ele>217.4</ele>
        <time>2018-01-14T08:56:00Z</time>
      </trkpt>
      <trkpt lat="47.32406" lon="5.97146">
        <ele>217.4</ele>
        <time>2018-01-14T08:56:05Z</time>
      </trkpt>
      <trkpt lat="47.3241" lon="5.97132">
        <ele>216.43</ele>
        <time>2018-01-14T08:56:13Z</time>
      </trkpt>
      <trkpt lat="47.3243" lon="5.97127">
        <ele>214.51</ele>
        <time>2018-01-14T08:56:28Z</time>
      </trkpt>
      <trkpt lat="47.32452" lon="5.97121">
        <ele>214.03</ele>
        <time>2018-01-14T08:56:43Z</time>
      </trkpt>
      <trkpt lat="47.32466" lon="5.97112">
        <ele>213.55</ele>
        <time>2018-01-14T08:56:54Z</time>
      </trkpt>
      <trkpt lat="47.32481" lon="5.97095">
        <ele>214.03</ele>
        <time>2018-01-14T08:57:09Z</time>
      </trkpt>
      <trkpt lat="47.32497" lon="5.97072">
        <ele>214.03</ele>
        <time>2018-01-14T08:57:25Z</time>
      </trkpt>
      <trkpt lat="47.32505" lon="5.97055">
        <ele>214.03</ele>
        <time>2018-01-14T08:57:37Z</time>
      </trkpt>
      <trkpt lat="47.32517" lon="5.97039">
        <ele>214.51</ele>
        <time>2018-01-14T08:57:50Z</time>
      </trkpt>
      <trkpt lat="47.32529" lon="5.97038">
        <ele>216.43</ele>
        <time>2018-01-14T08:58:02Z</time>
      </trkpt>
      <trkpt lat="47.32538" lon="5.97043">
        <ele>217.4</ele>
        <time>2018-01-14T08:58:10Z</time>
      </trkpt>
      <trkpt lat="47.32553" lon="5.97051">
        <ele>219.32</ele>
        <time>2018-01-14T08:58:25Z</time>
      </trkpt>
      <trkpt lat="47.32569" lon="5.97055">
        <ele>219.8</ele>
        <time>2018-01-14T08:58:37Z</time>
      </trkpt>
      <trkpt lat="47.3259" lon="5.97054">
        <ele>221.24</ele>
        <time>2018-01-14T08:58:54Z</time>
      </trkpt>
      <trkpt lat="47.32608" lon="5.97054">
        <ele>222.2</ele>
        <time>2018-01-14T08:59:11Z</time>
      </trkpt>
      <trkpt lat="47.32626" lon="5.97053">
        <ele>223.64</ele>
        <time>2018-01-14T08:59:26Z</time>
      </trkpt>
      <trkpt lat="47.32641" lon="5.97052">
        <ele>223.64</ele>
        <time>2018-01-14T08:59:41Z</time>
      </trkpt>
      <trkpt lat="47.32645" lon="5.9705">
        <ele>224.61</ele>
        <time>2018-01-14T08:59:46Z</time>
      </trkpt>
      <trkpt lat="47.32653" lon="5.97045">
        <ele>225.09</ele>
        <time>2018-01-14T08:59:55Z</time>
      </trkpt>
      <trkpt lat="47.32663" lon="5.97029">
        <ele>226.05</ele>
        <time>2018-01-14T09:00:07Z</time>
      </trkpt>
      <trkpt lat="47.3267" lon="5.97014">
        <ele>226.53</ele>
        <time>2018-01-14T09:00:20Z</time>
      </trkpt>
      <trkpt lat="47.32678" lon="5.96985">
        <ele>227.49</ele>
        <time>2018-01-14T09:00:37Z</time>
      </trkpt>
      <trkpt lat="47.32683" lon="5.96965">
        <ele>227.97</ele>
        <time>2018-01-14T09:00:50Z</time>
      </trkpt>
      <trkpt lat="47.3269" lon="5.96945">
        <ele>228.93</ele>
        <time>2018-01-14T09:01:05Z</time>
      </trkpt>
      <trkpt lat="47.32698" lon="5.96921">
        <ele>230.85</ele>
        <time>2018-01-14T09:01:19Z</time>
      </trkpt>
      <trkpt lat="47.32706" lon="5.96899">
        <ele>231.81</ele>
        <time>2018-01-14T09:01:33Z</time>
      </trkpt>
      <trkpt lat="47.32714" lon="5.96878">
        <ele>233.26</ele>
        <time>2018-01-14T09:01:49Z</time>
      </trkpt>
      <trkpt lat="47.3272" lon="5.96867">
        <ele>233.26</ele>
        <time>2018-01-14T09:02:00Z</time>
      </trkpt>
      <trkpt lat="47.32721" lon="5.96857">
        <ele>234.7</ele>
        <time>2018-01-14T09:02:14Z</time>
      </trkpt>
      <trkpt lat="47.32718" lon="5.96849">
        <ele>235.18</ele>
        <time>2018-01-14T09:02:21Z</time>
      </trkpt>
      <trkpt lat="47.32708" lon="5.96827">
        <ele>237.1</ele>
        <time>2018-01-14T09:02:36Z</time>
      </trkpt>
      <trkpt lat="47.32699" lon="5.96807">
        <ele>238.06</ele>
        <time>2018-01-14T09:02:50Z</time>
      </trkpt>
      <trkpt lat="47.32687" lon="5.96788">
        <ele>237.58</ele>
        <time>2018-01-14T09:03:05Z</time>
      </trkpt>
      <trkpt lat="47.32676" lon="5.96771">
        <ele>238.54</ele>
        <time>2018-01-14T09:03:19Z</time>
      </trkpt>
      <trkpt lat="47.32667" lon="5.96758">
        <ele>238.54</ele>
        <time>2018-01-14T09:03:29Z</time>
      </trkpt>
      <trkpt lat="47.32663" lon="5.96751">
        <ele>239.02</ele>
        <time>2018-01-14T09:03:35Z</time>
      </trkpt>
      <trkpt lat="47.3266" lon="5.96746">
        <ele>238.54</ele>
        <time>2018-01-14T09:03:39Z</time>
      </trkpt>
      <trkpt lat="47.32657" lon="5.96741">
        <ele>238.54</ele>
        <time>2018-01-14T09:03:43Z</time>
      </trkpt>
      <trkpt lat="47.32653" lon="5.96737">
        <ele>238.54</ele>
        <time>2018-01-14T09:03:48Z</time>
      </trkpt>
      <trkpt lat="47.32649" lon="5.96738">
        <ele>238.06</ele>
        <time>2018-01-14T09:03:51Z</time>
      </trkpt>
      <trkpt lat="47.32644" lon="5.96742">
        <ele>238.06</ele>
        <time>2018-01-14T09:04:03Z</time>
      </trkpt>
      <trkpt lat="47.32631" lon="5.96762">
        <ele>236.14</ele>
        <time>2018-01-14T09:04:19Z</time>
      </trkpt>
      <trkpt lat="47.32618" lon="5.96782">
        <ele>234.7</ele>
        <time>2018-01-14T09:04:34Z</time>
      </trkpt>
      <trkpt lat="47.32613" lon="5.96799">
        <ele>233.26</ele>
        <time>2018-01-14T09:04:44Z</time>
      </trkpt>
      <trkpt lat="47.32611" lon="5.9681">
        <ele>233.26</ele>
        <time>2018-01-14T09:04:50Z</time>
      </trkpt>
      <trkpt lat="47.32598" lon="5.96835">
        <ele>230.85</ele>
        <time>2018-01-14T09:05:07Z</time>
      </trkpt>
      <trkpt lat="47.32582" lon="5.96846">
        <ele>229.89</ele>
        <time>2018-01-14T09:05:21Z</time>
      </trkpt>
      <trkpt lat="47.32567" lon="5.9685">
        <ele>227.97</ele>
        <time>2018-01-14T09:05:35Z</time>
      </trkpt>
      <trkpt lat="47.32563" lon="5.96851">
        <ele>227.97</ele>
        <time>2018-01-14T09:05:38Z</time>
      </trkpt>
      <trkpt lat="47.32548" lon="5.96868">
        <ele>226.05</ele>
        <time>2018-01-14T09:05:54Z</time>
      </trkpt>
      <trkpt lat="47.32539" lon="5.96877">
        <ele>224.61</ele>
        <time>2018-01-14T09:06:01Z</time>
      </trkpt>
      <trkpt lat="47.32523" lon="5.96896">
        <ele>221.72</ele>
        <time>2018-01-14T09:06:19Z</time>
      </trkpt>
      <trkpt lat="47.32519" lon="5.96902">
        <ele>220.76</ele>
        <time>2018-01-14T09:06:25Z</time>
      </trkpt>
      <trkpt lat="47.32507" lon="5.96908">
        <ele>219.32</ele>
        <time>2018-01-14T09:06:36Z</time>
      </trkpt>
      <trkpt lat="47.32488" lon="5.96893">
        <ele>217.88</ele>
        <time>2018-01-14T09:06:53Z</time>
      </trkpt>
      <trkpt lat="47.32472" lon="5.96877">
        <ele>215.47</ele>
        <time>2018-01-14T09:07:09Z</time>
      </trkpt>
      <trkpt lat="47.32454" lon="5.96874">
        <ele>214.51</ele>
        <time>2018-01-14T09:07:24Z</time>
      </trkpt>
      <trkpt lat="47.32452" lon="5.96874">
        <ele>214.51</ele>
        <time>2018-01-14T09:07:25Z</time>
      </trkpt>
      <trkpt lat="47.32449" lon="5.96873">
        <ele>214.03</ele>
        <time>2018-01-14T09:07:29Z</time>
      </trkpt>
      <trkpt lat="47.32445" lon="5.96871">
        <ele>213.55</ele>
        <time>2018-01-14T09:07:32Z</time>
      </trkpt>
      <trkpt lat="47.32427" lon="5.96876">
        <ele>213.07</ele>
        <time>2018-01-14T09:07:46Z</time>
      </trkpt>
      <trkpt lat="47.32426" lon="5.96877">
        <ele>212.59</ele>
        <time>2018-01-14T09:07:48Z</time>
      </trkpt>
      <trkpt lat="47.32408" lon="5.96889">
        <ele>212.59</ele>
        <time>2018-01-14T09:08:05Z</time>
      </trkpt>
      <trkpt lat="47.32406" lon="5.9689">
        <ele>212.59</ele>
        <time>2018-01-14T09:08:07Z</time>
      </trkpt>
      <trkpt lat="47.3239" lon="5.96904">
        <ele>213.07</ele>
        <time>2018-01-14T09:08:24Z</time>
      </trkpt>
      <trkpt lat="47.32377" lon="5.96918">
        <ele>212.59</ele>
        <time>2018-01-14T09:08:38Z</time>
      </trkpt>
      <trkpt lat="47.32362" lon="5.9693">
        <ele>214.03</ele>
        <time>2018-01-14T09:08:53Z</time>
      </trkpt>
      <trkpt lat="47.3235" lon="5.96939">
        <ele>214.51</ele>
        <time>2018-01-14T09:09:08Z</time>
      </trkpt>
      <trkpt lat="47.32338" lon="5.96947">
        <ele>215.47</ele>
        <time>2018-01-14T09:09:24Z</time>
      </trkpt>
      <trkpt lat="47.32332" lon="5.96965">
        <ele>217.4</ele>
        <time>2018-01-14T09:09:39Z</time>
      </trkpt>
      <trkpt lat="47.32333" lon="5.96984">
        <ele>218.36</ele>
        <time>2018-01-14T09:09:53Z</time>
      </trkpt>
      <trkpt lat="47.32333" lon="5.96987">
        <ele>218.36</ele>
        <time>2018-01-14T09:09:55Z</time>
      </trkpt>
      <trkpt lat="47.32324" lon="5.97006">
        <ele>219.32</ele>
        <time>2018-01-14T09:10:10Z</time>
      </trkpt>
      <trkpt lat="47.32307" lon="5.97035">
        <ele>220.28</ele>
        <time>2018-01-14T09:10:28Z</time>
      </trkpt>
      <trkpt lat="47.32298" lon="5.97047">
        <ele>221.24</ele>
        <time>2018-01-14T09:10:38Z</time>
      </trkpt>
      <trkpt lat="47.32286" lon="5.97065">
        <ele>223.16</ele>
        <time>2018-01-14T09:10:55Z</time>
      </trkpt>
      <trkpt lat="47.32274" lon="5.97082">
        <ele>225.09</ele>
        <time>2018-01-14T09:11:12Z</time>
      </trkpt>
      <trkpt lat="47.32254" lon="5.97086">
        <ele>226.05</ele>
        <time>2018-01-14T09:11:28Z</time>
      </trkpt>
      <trkpt lat="47.32232" lon="5.9709">
        <ele>227.01</ele>
        <time>2018-01-14T09:11:45Z</time>
      </trkpt>
      <trkpt lat="47.32216" lon="5.97092">
        <ele>227.49</ele>
        <time>2018-01-14T09:11:58Z</time>
      </trkpt>
      <trkpt lat="47.32207" lon="5.97095">
        <ele>228.45</ele>
        <time>2018-01-14T09:12:12Z</time>
      </trkpt>
      <trkpt lat="47.32196" lon="5.97096">
        <ele>227.97</ele>
        <time>2018-01-14T09:12:24Z</time>
      </trkpt>
      <trkpt lat="47.32179" lon="5.97103">
        <ele>227.97</ele>
        <time>2018-01-14T09:12:39Z</time>
      </trkpt>
      <trkpt lat="47.32162" lon="5.97109">
        <ele>228.45</ele>
        <time>2018-01-14T09:12:54Z</time>
      </trkpt>
      <trkpt lat="47.32146" lon="5.97117">
        <ele>229.41</ele>
        <time>2018-01-14T09:13:09Z</time>
      </trkpt>
      <trkpt lat="47.32129" lon="5.97124">
        <ele>230.37</ele>
        <time>2018-01-14T09:13:23Z</time>
      </trkpt>
      <trkpt lat="47.3211" lon="5.97127">
        <ele>230.85</ele>
        <time>2018-01-14T09:13:40Z</time>
      </trkpt>
      <trkpt lat="47.32104" lon="5.97126">
        <ele>230.85</ele>
        <time>2018-01-14T09:13:47Z</time>
      </trkpt>
      <trkpt lat="47.32096" lon="5.9713">
        <ele>231.81</ele>
        <time>2018-01-14T09:14:01Z</time>
      </trkpt>
      <trkpt lat="47.32096" lon="5.9713">
        <ele>231.81</ele>
        <time>2018-01-14T09:14:20Z</time>
      </trkpt>
      <trkpt lat="47.32096" lon="5.9713">
        <ele>232.3</ele>
        <time>2018-01-14T09:14:44Z</time>
      </trkpt>
      <trkpt lat="47.32093" lon="5.97136">
        <ele>232.78</ele>
        <time>2018-01-14T09:15:08Z</time>
      </trkpt>
      <trkpt lat="47.32073" lon="5.97156">
        <ele>233.74</ele>
        <time>2018-01-14T09:15:27Z</time>
      </trkpt>
      <trkpt lat="47.32065" lon="5.97166">
        <ele>233.74</ele>
        <time>2018-01-14T09:15:35Z</time>
      </trkpt>
      <trkpt lat="47.32064" lon="5.97168">
        <ele>233.74</ele>
        <time>2018-01-14T09:15:38Z</time>
      </trkpt>
      <trkpt lat="47.32056" lon="5.97176">
        <ele>234.22</ele>
        <time>2018-01-14T09:15:46Z</time>
      </trkpt>
      <trkpt lat="47.32049" lon="5.97183">
        <ele>234.7</ele>
        <time>2018-01-14T09:15:54Z</time>
      </trkpt>
      <trkpt lat="47.32034" lon="5.97197">
        <ele>234.22</ele>
        <time>2018-01-14T09:16:08Z</time>
      </trkpt>
      <trkpt lat="47.32017" lon="5.97213">
        <ele>233.26</ele>
        <time>2018-01-14T09:16:24Z</time>
      </trkpt>
      <trkpt lat="47.32002" lon="5.97227">
        <ele>231.81</ele>
        <time>2018-01-14T09:16:38Z</time>
      </trkpt>
      <trkpt lat="47.31986" lon="5.97242">
        <ele>230.37</ele>
        <time>2018-01-14T09:16:52Z</time>
      </trkpt>
      <trkpt lat="47.31972" lon="5.97257">
        <ele>228.45</ele>
        <time>2018-01-14T09:17:06Z</time>
      </trkpt>
      <trkpt lat="47.31968" lon="5.97271">
        <ele>227.49</ele>
        <time>2018-01-14T09:17:17Z</time>
      </trkpt>
      <trkpt lat="47.31971" lon="5.97295">
        <ele>225.57</ele>
        <time>2018-01-14T09:17:31Z</time>
      </trkpt>
      <trkpt lat="47.31987" lon="5.97312">
        <ele>225.57</ele>
        <time>2018-01-14T09:17:46Z</time>
      </trkpt>
      <trkpt lat="47.32001" lon="5.97338">
        <ele>224.12</ele>
        <time>2018-01-14T09:18:02Z</time>
      </trkpt>
      <trkpt lat="47.32003" lon="5.97341">
        <ele>223.64</ele>
        <time>2018-01-14T09:18:04Z</time>
      </trkpt>
      <trkpt lat="47.32013" lon="5.97368">
        <ele>222.2</ele>
        <time>2018-01-14T09:18:20Z</time>
      </trkpt>
      <trkpt lat="47.32021" lon="5.97392">
        <ele>221.24</ele>
        <time>2018-01-14T09:18:33Z</time>
      </trkpt>
      <trkpt lat="47.32005" lon="5.97407">
        <ele>220.76</ele>
        <time>2018-01-14T09:18:48Z</time>
      </trkpt>
      <trkpt lat="47.31987" lon="5.97425">
        <ele>220.28</ele>
        <time>2018-01-14T09:19:04Z</time>
      </trkpt>
      <trkpt lat="47.31972" lon="5.9744">
        <ele>219.32</ele>
        <time>2018-01-14T09:19:19Z</time>
      </trkpt>
      <trkpt lat="47.31958" lon="5.97455">
        <ele>218.84</ele>
        <time>2018-01-14T09:19:33Z</time>
      </trkpt>
      <trkpt lat="47.31956" lon="5.97457">
        <ele>218.84</ele>
        <time>2018-01-14T09:19:35Z</time>
      </trkpt>
      <trkpt lat="47.31942" lon="5.97469">
        <ele>217.88</ele>
        <time>2018-01-14T09:19:49Z</time>
      </trkpt>
      <trkpt lat="47.31932" lon="5.97476">
        <ele>217.88</ele>
        <time>2018-01-14T09:20:00Z</time>
      </trkpt>
      <trkpt lat="47.3191" lon="5.97492">
        <ele>217.4</ele>
        <time>2018-01-14T09:20:19Z</time>
      </trkpt>
      <trkpt lat="47.31892" lon="5.97507">
        <ele>216.91</ele>
        <time>2018-01-14T09:20:34Z</time>
      </trkpt>
      <trkpt lat="47.31874" lon="5.9752">
        <ele>216.43</ele>
        <time>2018-01-14T09:20:49Z</time>
      </trkpt>
      <trkpt lat="47.31859" lon="5.97531">
        <ele>216.43</ele>
        <time>2018-01-14T09:21:03Z</time>
      </trkpt>
      <trkpt lat="47.3185" lon="5.97537">
        <ele>216.91</ele>
        <time>2018-01-14T09:21:11Z</time>
      </trkpt>
      <trkpt lat="47.31844" lon="5.97547">
        <ele>216.43</ele>
        <time>2018-01-14T09:21:21Z</time>
      </trkpt>
      <trkpt lat="47.31841" lon="5.97555">
        <ele>216.43</ele>
        <time>2018-01-14T09:21:27Z</time>
      </trkpt>
      <trkpt lat="47.3182" lon="5.97572">
        <ele>216.43</ele>
        <time>2018-01-14T09:21:44Z</time>
      </trkpt>
      <trkpt lat="47.31812" lon="5.97583">
        <ele>216.43</ele>
        <time>2018-01-14T09:21:53Z</time>
      </trkpt>
      <trkpt lat="47.31802" lon="5.97608">
        <ele>215.95</ele>
        <time>2018-01-14T09:22:09Z</time>
      </trkpt>
      <trkpt lat="47.31797" lon="5.97635">
        <ele>216.43</ele>
        <time>2018-01-14T09:22:25Z</time>
      </trkpt>
      <trkpt lat="47.31797" lon="5.97642">
        <ele>216.43</ele>
        <time>2018-01-14T09:22:29Z</time>
      </trkpt>
      <trkpt lat="47.31796" lon="5.97646">
        <ele>216.43</ele>
        <time>2018-01-14T09:22:32Z</time>
      </trkpt>
      <trkpt lat="47.31793" lon="5.9766">
        <ele>216.91</ele>
        <time>2018-01-14T09:22:42Z</time>
      </trkpt>
      <trkpt lat="47.31794" lon="5.97665">
        <ele>216.91</ele>
        <time>2018-01-14T09:22:45Z</time>
      </trkpt>
      <trkpt lat="47.31789" lon="5.97683">
        <ele>217.4</ele>
        <time>2018-01-14T09:22:55Z</time>
      </trkpt>
      <trkpt lat="47.31781" lon="5.97711">
        <ele>216.91</ele>
        <time>2018-01-14T09:23:11Z</time>
      </trkpt>
      <trkpt lat="47.31773" lon="5.97742">
        <ele>217.4</ele>
        <time>2018-01-14T09:23:27Z</time>
      </trkpt>
      <trkpt lat="47.31767" lon="5.97772">
        <ele>216.43</ele>
        <time>2018-01-14T09:23:43Z</time>
      </trkpt>
      <trkpt lat="47.31762" lon="5.97797">
        <ele>215.95</ele>
        <time>2018-01-14T09:23:57Z</time>
      </trkpt>
      <trkpt lat="47.31756" lon="5.97827">
        <ele>215.95</ele>
        <time>2018-01-14T09:24:13Z</time>
      </trkpt>
      <trkpt lat="47.31757" lon="5.97849">
        <ele>215.95</ele>
        <time>2018-01-14T09:24:27Z</time>
      </trkpt>
      <trkpt lat="47.31757" lon="5.9786">
        <ele>216.43</ele>
        <time>2018-01-14T09:24:43Z</time>
      </trkpt>
      <trkpt lat="47.31757" lon="5.97882">
        <ele>216.43</ele>
        <time>2018-01-14T09:24:57Z</time>
      </trkpt>
      <trkpt lat="47.31761" lon="5.97904">
        <ele>214.51</ele>
        <time>2018-01-14T09:25:14Z</time>
      </trkpt>
      <trkpt lat="47.3177" lon="5.97934">
        <ele>214.03</ele>
        <time>2018-01-14T09:25:32Z</time>
      </trkpt>
      <trkpt lat="47.31774" lon="5.97953">
        <ele>213.55</ele>
        <time>2018-01-14T09:25:44Z</time>
      </trkpt>
      <trkpt lat="47.31784" lon="5.9798">
        <ele>213.07</ele>
        <time>2018-01-14T09:25:59Z</time>
      </trkpt>
      <trkpt lat="47.31789" lon="5.98">
        <ele>213.07</ele>
        <time>2018-01-14T09:26:14Z</time>
      </trkpt>
      <trkpt lat="47.31794" lon="5.98025">
        <ele>212.11</ele>
        <time>2018-01-14T09:26:28Z</time>
      </trkpt>
      <trkpt lat="47.31802" lon="5.9804">
        <ele>213.55</ele>
        <time>2018-01-14T09:26:43Z</time>
      </trkpt>
      <trkpt lat="47.31805" lon="5.98047">
        <ele>213.07</ele>
        <time>2018-01-14T09:26:47Z</time>
      </trkpt>
      <trkpt lat="47.31825" lon="5.98084">
        <ele>212.59</ele>
        <time>2018-01-14T09:27:05Z</time>
      </trkpt>
      <trkpt lat="47.31825" lon="5.98087">
        <ele>213.07</ele>
        <time>2018-01-14T09:27:07Z</time>
      </trkpt>
      <trkpt lat="47.31821" lon="5.98106">
        <ele>213.07</ele>
        <time>2018-01-14T09:27:22Z</time>
      </trkpt>
      <trkpt lat="47.31822" lon="5.98132">
        <ele>213.07</ele>
        <time>2018-01-14T09:27:36Z</time>
      </trkpt>
      <trkpt lat="47.31831" lon="5.98153">
        <ele>214.03</ele>
        <time>2018-01-14T09:27:53Z</time>
      </trkpt>
      <trkpt lat="47.31826" lon="5.98171">
        <ele>214.51</ele>
        <time>2018-01-14T09:28:04Z</time>
      </trkpt>
      <trkpt lat="47.31816" lon="5.98182">
        <ele>214.51</ele>
        <time>2018-01-14T09:28:12Z</time>
      </trkpt>
      <trkpt lat="47.31814" lon="5.98188">
        <ele>214.51</ele>
        <time>2018-01-14T09:28:16Z</time>
      </trkpt>
      <trkpt lat="47.31813" lon="5.98196">
        <ele>215.95</ele>
        <time>2018-01-14T09:28:21Z</time>
      </trkpt>
      <trkpt lat="47.31817" lon="5.98209">
        <ele>215.95</ele>
        <time>2018-01-14T09:28:29Z</time>
      </trkpt>
      <trkpt lat="47.31828" lon="5.98229">
        <ele>215.47</ele>
        <time>2018-01-14T09:28:44Z</time>
      </trkpt>
      <trkpt lat="47.31838" lon="5.98251">
        <ele>215.95</ele>
        <time>2018-01-14T09:28:58Z</time>
      </trkpt>
      <trkpt lat="47.31839" lon="5.98253">
        <ele>216.43</ele>
        <time>2018-01-14T09:29:00Z</time>
      </trkpt>
      <trkpt lat="47.31846" lon="5.98271">
        <ele>216.43</ele>
        <time>2018-01-14T09:29:15Z</time>
      </trkpt>
      <trkpt lat="47.31856" lon="5.98294">
        <ele>217.88</ele>
        <time>2018-01-14T09:29:30Z</time>
      </trkpt>
      <trkpt lat="47.31866" lon="5.98317">
        <ele>218.36</ele>
        <time>2018-01-14T09:29:46Z</time>
      </trkpt>
      <trkpt lat="47.31872" lon="5.98336">
        <ele>218.84</ele>
        <time>2018-01-14T09:30:00Z</time>
      </trkpt>
      <trkpt lat="47.31879" lon="5.98356">
        <ele>219.8</ele>
        <time>2018-01-14T09:30:14Z</time>
      </trkpt>
      <trkpt lat="47.31892" lon="5.98377">
        <ele>220.76</ele>
        <time>2018-01-14T09:30:31Z</time>
      </trkpt>
      <trkpt lat="47.31904" lon="5.98396">
        <ele>220.76</ele>
        <time>2018-01-14T09:30:48Z</time>
      </trkpt>
      <trkpt lat="47.31917" lon="5.98416">
        <ele>222.2</ele>
        <time>2018-01-14T09:31:05Z</time>
      </trkpt>
      <trkpt lat="47.31933" lon="5.98444">
        <ele>222.68</ele>
        <time>2018-01-14T09:31:22Z</time>
      </trkpt>
      <trkpt lat="47.3195" lon="5.9847">
        <ele>223.16</ele>
        <time>2018-01-14T09:31:40Z</time>
      </trkpt>
      <trkpt lat="47.31961" lon="5.98485">
        <ele>224.12</ele>
        <time>2018-01-14T09:31:55Z</time>
      </trkpt>
      <trkpt lat="47.31971" lon="5.98499">
        <ele>224.61</ele>
        <time>2018-01-14T09:32:06Z</time>
      </trkpt>
      <trkpt lat="47.31985" lon="5.98522">
        <ele>225.09</ele>
        <time>2018-01-14T09:32:23Z</time>
      </trkpt>
      <trkpt lat="47.31998" lon="5.98546">
        <ele>224.61</ele>
        <time>2018-01-14T09:32:40Z</time>
      </trkpt>
      <trkpt lat="47.32011" lon="5.98567">
        <ele>225.57</ele>
        <time>2018-01-14T09:32:56Z</time>
      </trkpt>
      <trkpt lat="47.32019" lon="5.98582">
        <ele>225.57</ele>
        <time>2018-01-14T09:33:07Z</time>
      </trkpt>
      <trkpt lat="47.32027" lon="5.98592">
        <ele>227.01</ele>
        <time>2018-01-14T09:33:17Z</time>
      </trkpt>
      <trkpt lat="47.32039" lon="5.98614">
        <ele>226.53</ele>
        <time>2018-01-14T09:33:33Z</time>
      </trkpt>
      <trkpt lat="47.32051" lon="5.98635">
        <ele>226.53</ele>
        <time>2018-01-14T09:33:49Z</time>
      </trkpt>
      <trkpt lat="47.32064" lon="5.98654">
        <ele>227.01</ele>
        <time>2018-01-14T09:34:04Z</time>
      </trkpt>
      <trkpt lat="47.32076" lon="5.98675">
        <ele>226.53</ele>
        <time>2018-01-14T09:34:18Z</time>
      </trkpt>
      <trkpt lat="47.32092" lon="5.987">
        <ele>226.53</ele>
        <time>2018-01-14T09:34:36Z</time>
      </trkpt>
      <trkpt lat="47.32104" lon="5.98723">
        <ele>227.49</ele>
        <time>2018-01-14T09:34:52Z</time>
      </trkpt>
      <trkpt lat="47.3212" lon="5.98745">
        <ele>228.45</ele>
        <time>2018-01-14T09:35:10Z</time>
      </trkpt>
      <trkpt lat="47.32135" lon="5.98767">
        <ele>228.93</ele>
        <time>2018-01-14T09:35:27Z</time>
      </trkpt>
      <trkpt lat="47.3215" lon="5.98789">
        <ele>228.93</ele>
        <time>2018-01-14T09:35:45Z</time>
      </trkpt>
      <trkpt lat="47.32164" lon="5.98805">
        <ele>228.93</ele>
        <time>2018-01-14T09:36:02Z</time>
      </trkpt>
      <trkpt lat="47.3218" lon="5.98826">
        <ele>229.41</ele>
        <time>2018-01-14T09:36:21Z</time>
      </trkpt>
      <trkpt lat="47.32198" lon="5.9885">
        <ele>229.89</ele>
        <time>2018-01-14T09:36:41Z</time>
      </trkpt>
      <trkpt lat="47.32199" lon="5.98851">
        <ele>229.89</ele>
        <time>2018-01-14T09:36:42Z</time>
      </trkpt>
      <trkpt lat="47.32214" lon="5.98875">
        <ele>230.37</ele>
        <time>2018-01-14T09:36:59Z</time>
      </trkpt>
      <trkpt lat="47.32223" lon="5.9889">
        <ele>230.37</ele>
        <time>2018-01-14T09:37:11Z</time>
      </trkpt>
      <trkpt lat="47.32236" lon="5.9891">
        <ele>229.89</ele>
        <time>2018-01-14T09:37:27Z</time>
      </trkpt>
      <trkpt lat="47.32238" lon="5.98914">
        <ele>229.89</ele>
        <time>2018-01-14T09:37:30Z</time>
      </trkpt>
      <trkpt lat="47.32243" lon="5.98924">
        <ele>229.41</ele>
        <time>2018-01-14T09:37:37Z</time>
      </trkpt>
      <trkpt lat="47.32257" lon="5.98947">
        <ele>228.93</ele>
        <time>2018-01-14T09:37:53Z</time>
      </trkpt>
      <trkpt lat="47.32274" lon="5.9896">
        <ele>227.49</ele>
        <time>2018-01-14T09:38:08Z</time>
      </trkpt>
      <trkpt lat="47.32287" lon="5.98973">
        <ele>227.01</ele>
        <time>2018-01-14T09:38:21Z</time>
      </trkpt>
      <trkpt lat="47.32289" lon="5.98981">
        <ele>226.53</ele>
        <time>2018-01-14T09:38:25Z</time>
      </trkpt>
      <trkpt lat="47.32304" lon="5.99007">
        <ele>224.61</ele>
        <time>2018-01-14T09:38:43Z</time>
      </trkpt>
      <trkpt lat="47.32319" lon="5.99034">
        <ele>224.12</ele>
        <time>2018-01-14T09:39:02Z</time>
      </trkpt>
      <trkpt lat="47.32332" lon="5.99059">
        <ele>223.16</ele>
        <time>2018-01-14T09:39:19Z</time>
      </trkpt>
      <trkpt lat="47.3235" lon="5.99084">
        <ele>221.24</ele>
        <time>2018-01-14T09:39:37Z</time>
      </trkpt>
      <trkpt lat="47.32369" lon="5.99082">
        <ele>221.24</ele>
        <time>2018-01-14T09:39:52Z</time>
      </trkpt>
      <trkpt lat="47.3239" lon="5.99099">
        <ele>219.8</ele>
        <time>2018-01-14T09:40:10Z</time>
      </trkpt>
      <trkpt lat="47.32403" lon="5.99117">
        <ele>218.36</ele>
        <time>2018-01-14T09:40:25Z</time>
      </trkpt>
      <trkpt lat="47.32407" lon="5.99128">
        <ele>217.88</ele>
        <time>2018-01-14T09:40:37Z</time>
      </trkpt>
      <trkpt lat="47.32408" lon="5.99132">
        <ele>217.88</ele>
        <time>2018-01-14T09:40:39Z</time>
      </trkpt>
      <trkpt lat="47.32406" lon="5.99139">
        <ele>217.88</ele>
        <time>2018-01-14T09:40:43Z</time>
      </trkpt>
      <trkpt lat="47.32405" lon="5.99174">
        <ele>216.43</ele>
        <time>2018-01-14T09:41:02Z</time>
      </trkpt>
      <trkpt lat="47.32417" lon="5.99196">
        <ele>215.47</ele>
        <time>2018-01-14T09:41:17Z</time>
      </trkpt>
      <trkpt lat="47.3243" lon="5.99214">
        <ele>215.47</ele>
        <time>2018-01-14T09:41:33Z</time>
      </trkpt>
      <trkpt lat="47.32444" lon="5.99235">
        <ele>215.95</ele>
        <time>2018-01-14T09:41:52Z</time>
      </trkpt>
      <trkpt lat="47.32452" lon="5.99253">
        <ele>216.91</ele>
        <time>2018-01-14T09:42:07Z</time>
      </trkpt>
      <trkpt lat="47.3246" lon="5.99268">
        <ele>216.91</ele>
        <time>2018-01-14T09:42:23Z</time>
      </trkpt>
      <trkpt lat="47.32478" lon="5.99297">
        <ele>217.4</ele>
        <time>2018-01-14T09:42:41Z</time>
      </trkpt>
      <trkpt lat="47.3249" lon="5.99314">
        <ele>218.84</ele>
        <time>2018-01-14T09:42:58Z</time>
      </trkpt>
      <trkpt lat="47.32504" lon="5.99329">
        <ele>220.28</ele>
        <time>2018-01-14T09:43:15Z</time>
      </trkpt>
      <trkpt lat="47.32517" lon="5.99342">
        <ele>220.76</ele>
        <time>2018-01-14T09:43:30Z</time>
      </trkpt>
      <trkpt lat="47.32534" lon="5.99359">
        <ele>221.24</ele>
        <time>2018-01-14T09:43:48Z</time>
      </trkpt>
      <trkpt lat="47.32547" lon="5.99374">
        <ele>222.2</ele>
        <time>2018-01-14T09:44:03Z</time>
      </trkpt>
      <trkpt lat="47.32556" lon="5.99383">
        <ele>221.72</ele>
        <time>2018-01-14T09:44:12Z</time>
      </trkpt>
      <trkpt lat="47.3256" lon="5.99387">
        <ele>222.2</ele>
        <time>2018-01-14T09:44:15Z</time>
      </trkpt>
      <trkpt lat="47.32571" lon="5.99397">
        <ele>222.2</ele>
        <time>2018-01-14T09:44:25Z</time>
      </trkpt>
      <trkpt lat="47.32576" lon="5.99407">
        <ele>223.16</ele>
        <time>2018-01-14T09:44:35Z</time>
      </trkpt>
      <trkpt lat="47.32594" lon="5.99426">
        <ele>224.12</ele>
        <time>2018-01-14T09:44:54Z</time>
      </trkpt>
      <trkpt lat="47.32595" lon="5.99427">
        <ele>224.12</ele>
        <time>2018-01-14T09:45:08Z</time>
      </trkpt>
      <trkpt lat="47.326" lon="5.99431">
        <ele>224.12</ele>
        <time>2018-01-14T09:45:13Z</time>
      </trkpt>
      <trkpt lat="47.32611" lon="5.99443">
        <ele>225.09</ele>
        <time>2018-01-14T09:45:27Z</time>
      </trkpt>
      <trkpt lat="47.3263" lon="5.99466">
        <ele>226.53</ele>
        <time>2018-01-14T09:45:48Z</time>
      </trkpt>
      <trkpt lat="47.32642" lon="5.99479">
        <ele>227.01</ele>
        <time>2018-01-14T09:46:02Z</time>
      </trkpt>
      <trkpt lat="47.32657" lon="5.99496">
        <ele>227.01</ele>
        <time>2018-01-14T09:46:18Z</time>
      </trkpt>
      <trkpt lat="47.32671" lon="5.99513">
        <ele>227.01</ele>
        <time>2018-01-14T09:46:35Z</time>
      </trkpt>
      <trkpt lat="47.32681" lon="5.9952">
        <ele>227.49</ele>
        <time>2018-01-14T09:46:42Z</time>
      </trkpt>
      <trkpt lat="47.32685" lon="5.99518">
        <ele>226.53</ele>
        <time>2018-01-14T09:47:00Z</time>
      </trkpt>
      <trkpt lat="47.32685" lon="5.99518">
        <ele>224.61</ele>
        <time>2018-01-14T09:47:13Z</time>
      </trkpt>
      <trkpt lat="47.32685" lon="5.99518">
        <ele>227.97</ele>
        <time>2018-01-14T09:47:15Z</time>
      </trkpt>
      <trkpt lat="47.32685" lon="5.99518">
        <ele>226.53</ele>
        <time>2018-01-14T09:47:35Z</time>
      </trkpt>
      <trkpt lat="47.32685" lon="5.99518">
        <ele>226.53</ele>
        <time>2018-01-14T09:48:06Z</time>
      </trkpt>
      <trkpt lat="47.32685" lon="5.99518">
        <ele>221.72</ele>
        <time>2018-01-14T09:48:28Z</time>
      </trkpt>
      <trkpt lat="47.32685" lon="5.99518">
        <ele>230.37</ele>
        <time>2018-01-14T09:48:29Z</time>
      </trkpt>
      <trkpt lat="47.32685" lon="5.99518">
        <ele>226.53</ele>
        <time>2018-01-14T09:48:31Z</time>
      </trkpt>
      <trkpt lat="47.32686" lon="5.99518">
        <ele>226.53</ele>
        <time>2018-01-14T09:48:57Z</time>
      </trkpt>
      <trkpt lat="47.32686" lon="5.99518">
        <ele>226.53</ele>
        <time>2018-01-14T09:49:23Z</time>
      </trkpt>
      <trkpt lat="47.32686" lon="5.99518">
        <ele>226.53</ele>
        <time>2018-01-14T09:49:58Z</time>
      </trkpt>
      <trkpt lat="47.32686" lon="5.99518">
        <ele>227.01</ele>
        <time>2018-01-14T09:50:21Z</time>
      </trkpt>
      <trkpt lat="47.32686" lon="5.99518">
        <ele>227.01</ele>
        <time>2018-01-14T09:50:51Z</time>
      </trkpt>
      <trkpt lat="47.32686" lon="5.99518">
        <ele>227.01</ele>
        <time>2018-01-14T09:51:13Z</time>
      </trkpt>
      <trkpt lat="47.32686" lon="5.99518">
        <ele>217.88</ele>
        <time>2018-01-14T09:51:39Z</time>
      </trkpt>
      <trkpt lat="47.32686" lon="5.99518">
        <ele>230.37</ele>
        <time>2018-01-14T09:51:40Z</time>
      </trkpt>
      <trkpt lat="47.32686" lon="5.99518">
        <ele>227.49</ele>
        <time>2018-01-14T09:51:41Z</time>
      </trkpt>
      <trkpt lat="47.32686" lon="5.99518">
        <ele>227.01</ele>
        <time>2018-01-14T09:52:11Z</time>
      </trkpt>
      <trkpt lat="47.32686" lon="5.99518">
        <ele>222.2</ele>
        <time>2018-01-14T09:52:42Z</time>
      </trkpt>
      <trkpt lat="47.32686" lon="5.99518">
        <ele>222.68</ele>
        <time>2018-01-14T09:52:43Z</time>
      </trkpt>
      <trkpt lat="47.32686" lon="5.99518">
        <ele>235.66</ele>
        <time>2018-01-14T09:52:44Z</time>
      </trkpt>
      <trkpt lat="47.32686" lon="5.99518">
        <ele>227.97</ele>
        <time>2018-01-14T09:52:45Z</time>
      </trkpt>
      <trkpt lat="47.32686" lon="5.99518">
        <ele>227.01</ele>
        <time>2018-01-14T09:52:47Z</time>
      </trkpt>
      <trkpt lat="47.32686" lon="5.99517">
        <ele>227.01</ele>
        <time>2018-01-14T09:53:12Z</time>
      </trkpt>
      <trkpt lat="47.32686" lon="5.99517">
        <ele>227.49</ele>
        <time>2018-01-14T09:53:35Z</time>
      </trkpt>
      <trkpt lat="47.32686" lon="5.99517">
        <ele>218.84</ele>
        <time>2018-01-14T09:53:39Z</time>
      </trkpt>
      <trkpt lat="47.32686" lon="5.99517">
        <ele>232.3</ele>
        <time>2018-01-14T09:53:40Z</time>
      </trkpt>
      <trkpt lat="47.32686" lon="5.99517">
        <ele>227.97</ele>
        <time>2018-01-14T09:53:41Z</time>
      </trkpt>
      <trkpt lat="47.32686" lon="5.99517">
        <ele>227.01</ele>
        <time>2018-01-14T09:54:06Z</time>
      </trkpt>
      <trkpt lat="47.32686" lon="5.99517">
        <ele>227.01</ele>
        <time>2018-01-14T09:54:33Z</time>
      </trkpt>
      <trkpt lat="47.32686" lon="5.99517">
        <ele>226.53</ele>
        <time>2018-01-14T09:54:59Z</time>
      </trkpt>
      <trkpt lat="47.32686" lon="5.99517">
        <ele>227.49</ele>
        <time>2018-01-14T09:55:20Z</time>
      </trkpt>
      <trkpt lat="47.32686" lon="5.99517">
        <ele>227.01</ele>
        <time>2018-01-14T09:55:46Z</time>
      </trkpt>
      <trkpt lat="47.32686" lon="5.99517">
        <ele>226.53</ele>
        <time>2018-01-14T09:56:14Z</time>
      </trkpt>
      <trkpt lat="47.32686" lon="5.99517">
        <ele>227.01</ele>
        <time>2018-01-14T09:56:44Z</time>
      </trkpt>
      <trkpt lat="47.32686" lon="5.99517">
        <ele>226.53</ele>
        <time>2018-01-14T09:57:11Z</time>
      </trkpt>
      <trkpt lat="47.32686" lon="5.99517">
        <ele>226.53</ele>
        <time>2018-01-14T09:57:39Z</time>
      </trkpt>
      <trkpt lat="47.32686" lon="5.99517">
        <ele>221.72</ele>
        <time>2018-01-14T09:57:40Z</time>
      </trkpt>
      <trkpt lat="47.32686" lon="5.99517">
        <ele>227.01</ele>
        <time>2018-01-14T09:57:41Z</time>
      </trkpt>
      <trkpt lat="47.32686" lon="5.99517">
        <ele>227.01</ele>
        <time>2018-01-14T09:58:02Z</time>
      </trkpt>
      <trkpt lat="47.32686" lon="5.99516">
        <ele>226.53</ele>
        <time>2018-01-14T09:58:31Z</time>
      </trkpt>
      <trkpt lat="47.32684" lon="5.99519">
        <ele>227.49</ele>
        <time>2018-01-14T09:58:51Z</time>
      </trkpt>
      <trkpt lat="47.32684" lon="5.99519">
        <ele>227.49</ele>
        <time>2018-01-14T09:59:14Z</time>
      </trkpt>
      <trkpt lat="47.32684" lon="5.99523">
        <ele>227.49</ele>
        <time>2018-01-14T09:59:35Z</time>
      </trkpt>
      <trkpt lat="47.32685" lon="5.99532">
        <ele>227.01</ele>
        <time>2018-01-14T09:59:41Z</time>
      </trkpt>
      <trkpt lat="47.32696" lon="5.99548">
        <ele>226.53</ele>
        <time>2018-01-14T09:59:55Z</time>
      </trkpt>
      <trkpt lat="47.32708" lon="5.99564">
        <ele>226.05</ele>
        <time>2018-01-14T10:00:09Z</time>
      </trkpt>
      <trkpt lat="47.32721" lon="5.99581">
        <ele>225.57</ele>
        <time>2018-01-14T10:00:24Z</time>
      </trkpt>
      <trkpt lat="47.32737" lon="5.99602">
        <ele>224.12</ele>
        <time>2018-01-14T10:00:42Z</time>
      </trkpt>
      <trkpt lat="47.32752" lon="5.99619">
        <ele>222.68</ele>
        <time>2018-01-14T10:00:57Z</time>
      </trkpt>
      <trkpt lat="47.32767" lon="5.99635">
        <ele>221.72</ele>
        <time>2018-01-14T10:01:12Z</time>
      </trkpt>
      <trkpt lat="47.32781" lon="5.99649">
        <ele>220.76</ele>
        <time>2018-01-14T10:01:27Z</time>
      </trkpt>
      <trkpt lat="47.32782" lon="5.99651">
        <ele>220.28</ele>
        <time>2018-01-14T10:01:42Z</time>
      </trkpt>
      <trkpt lat="47.328" lon="5.99671">
        <ele>218.36</ele>
        <time>2018-01-14T10:01:59Z</time>
      </trkpt>
      <trkpt lat="47.32816" lon="5.99687">
        <ele>217.4</ele>
        <time>2018-01-14T10:02:13Z</time>
      </trkpt>
      <trkpt lat="47.32837" lon="5.99706">
        <ele>215.95</ele>
        <time>2018-01-14T10:02:30Z</time>
      </trkpt>
      <trkpt lat="47.32857" lon="5.99711">
        <ele>214.99</ele>
        <time>2018-01-14T10:02:45Z</time>
      </trkpt>
      <trkpt lat="47.32866" lon="5.99708">
        <ele>215.47</ele>
        <time>2018-01-14T10:02:53Z</time>
      </trkpt>
      <trkpt lat="47.32871" lon="5.99708">
        <ele>214.99</ele>
        <time>2018-01-14T10:02:57Z</time>
      </trkpt>
      <trkpt lat="47.32891" lon="5.99711">
        <ele>214.99</ele>
        <time>2018-01-14T10:03:13Z</time>
      </trkpt>
      <trkpt lat="47.32906" lon="5.99728">
        <ele>215.47</ele>
        <time>2018-01-14T10:03:29Z</time>
      </trkpt>
      <trkpt lat="47.3291" lon="5.99733">
        <ele>215.95</ele>
        <time>2018-01-14T10:03:33Z</time>
      </trkpt>
      <trkpt lat="47.32915" lon="5.99765">
        <ele>215.47</ele>
        <time>2018-01-14T10:03:51Z</time>
      </trkpt>
      <trkpt lat="47.32915" lon="5.99785">
        <ele>217.88</ele>
        <time>2018-01-14T10:04:03Z</time>
      </trkpt>
      <trkpt lat="47.32917" lon="5.99797">
        <ele>218.36</ele>
        <time>2018-01-14T10:04:10Z</time>
      </trkpt>
      <trkpt lat="47.32932" lon="5.99815">
        <ele>218.84</ele>
        <time>2018-01-14T10:04:26Z</time>
      </trkpt>
      <trkpt lat="47.32952" lon="5.99833">
        <ele>218.84</ele>
        <time>2018-01-14T10:04:43Z</time>
      </trkpt>
      <trkpt lat="47.32968" lon="5.9985">
        <ele>218.84</ele>
        <time>2018-01-14T10:04:59Z</time>
      </trkpt>
      <trkpt lat="47.32974" lon="5.99853">
        <ele>218.84</ele>
        <time>2018-01-14T10:05:04Z</time>
      </trkpt>
      <trkpt lat="47.32998" lon="5.99846">
        <ele>218.36</ele>
        <time>2018-01-14T10:05:23Z</time>
      </trkpt>
      <trkpt lat="47.33017" lon="5.99841">
        <ele>217.4</ele>
        <time>2018-01-14T10:05:38Z</time>
      </trkpt>
      <trkpt lat="47.3304" lon="5.99836">
        <ele>216.91</ele>
        <time>2018-01-14T10:05:56Z</time>
      </trkpt>
      <trkpt lat="47.33057" lon="5.99834">
        <ele>216.43</ele>
        <time>2018-01-14T10:06:10Z</time>
      </trkpt>
      <trkpt lat="47.33081" lon="5.9983">
        <ele>216.43</ele>
        <time>2018-01-14T10:06:28Z</time>
      </trkpt>
      <trkpt lat="47.33104" lon="5.99824">
        <ele>216.43</ele>
        <time>2018-01-14T10:06:46Z</time>
      </trkpt>
      <trkpt lat="47.33115" lon="5.99823">
        <ele>216.43</ele>
        <time>2018-01-14T10:06:57Z</time>
      </trkpt>
      <trkpt lat="47.33117" lon="5.99822">
        <ele>216.43</ele>
        <time>2018-01-14T10:06:59Z</time>
      </trkpt>
      <trkpt lat="47.33138" lon="5.9982">
        <ele>215.95</ele>
        <time>2018-01-14T10:07:15Z</time>
      </trkpt>
      <trkpt lat="47.33156" lon="5.99817">
        <ele>215.95</ele>
        <time>2018-01-14T10:07:30Z</time>
      </trkpt>
      <trkpt lat="47.33177" lon="5.99812">
        <ele>215.95</ele>
        <time>2018-01-14T10:07:45Z</time>
      </trkpt>
      <trkpt lat="47.33196" lon="5.99805">
        <ele>215.47</ele>
        <time>2018-01-14T10:08:00Z</time>
      </trkpt>
      <trkpt lat="47.33215" lon="5.99799">
        <ele>215.95</ele>
        <time>2018-01-14T10:08:17Z</time>
      </trkpt>
      <trkpt lat="47.33222" lon="5.99798">
        <ele>215.47</ele>
        <time>2018-01-14T10:08:22Z</time>
      </trkpt>
      <trkpt lat="47.33244" lon="5.99794">
        <ele>215.95</ele>
        <time>2018-01-14T10:08:39Z</time>
      </trkpt>
      <trkpt lat="47.33268" lon="5.99792">
        <ele>215.95</ele>
        <time>2018-01-14T10:08:54Z</time>
      </trkpt>
      <trkpt lat="47.33291" lon="5.99795">
        <ele>216.43</ele>
        <time>2018-01-14T10:09:11Z</time>
      </trkpt>
      <trkpt lat="47.33313" lon="5.99804">
        <ele>215.95</ele>
        <time>2018-01-14T10:09:29Z</time>
      </trkpt>
      <trkpt lat="47.33334" lon="5.99811">
        <ele>214.51</ele>
        <time>2018-01-14T10:09:46Z</time>
      </trkpt>
      <trkpt lat="47.33353" lon="5.99811">
        <ele>214.99</ele>
        <time>2018-01-14T10:10:01Z</time>
      </trkpt>
      <trkpt lat="47.3337" lon="5.99803">
        <ele>214.03</ele>
        <time>2018-01-14T10:10:16Z</time>
      </trkpt>
      <trkpt lat="47.33381" lon="5.99775">
        <ele>213.55</ele>
        <time>2018-01-14T10:10:33Z</time>
      </trkpt>
      <trkpt lat="47.33384" lon="5.99764">
        <ele>213.55</ele>
        <time>2018-01-14T10:10:39Z</time>
      </trkpt>
      <trkpt lat="47.33392" lon="5.99739">
        <ele>213.55</ele>
        <time>2018-01-14T10:10:55Z</time>
      </trkpt>
      <trkpt lat="47.33392" lon="5.9971">
        <ele>214.03</ele>
        <time>2018-01-14T10:11:09Z</time>
      </trkpt>
      <trkpt lat="47.33373" lon="5.99693">
        <ele>212.59</ele>
        <time>2018-01-14T10:11:23Z</time>
      </trkpt>
      <trkpt lat="47.33358" lon="5.99677">
        <ele>212.11</ele>
        <time>2018-01-14T10:11:37Z</time>
      </trkpt>
      <trkpt lat="47.33347" lon="5.99665">
        <ele>212.11</ele>
        <time>2018-01-14T10:11:50Z</time>
      </trkpt>
      <trkpt lat="47.33332" lon="5.99642">
        <ele>211.15</ele>
        <time>2018-01-14T10:12:06Z</time>
      </trkpt>
      <trkpt lat="47.33321" lon="5.99629">
        <ele>211.15</ele>
        <time>2018-01-14T10:12:20Z</time>
      </trkpt>
      <trkpt lat="47.33321" lon="5.99629">
        <ele>214.51</ele>
        <time>2018-01-14T10:12:24Z</time>
      </trkpt>
      <trkpt lat="47.33321" lon="5.99629">
        <ele>210.19</ele>
        <time>2018-01-14T10:12:29Z</time>
      </trkpt>
      <trkpt lat="47.33321" lon="5.99629">
        <ele>213.55</ele>
        <time>2018-01-14T10:12:40Z</time>
      </trkpt>
    </trkseg>
  </trk>
</gpx>